Time;durP1;ratioP1;P1;durP2;ratioP2;P2;SDS_P1;SDS_P2;PMS_P1;PMS_P2;Temp;Humidity;BMP_temperature;BMP_pressure;BME280_temperature;BME280_humidity;BME280_pressure;Samples;Min_cycle;Max_cycle;Signal;HPM_P1;HPM_P2
2021/06/22 00:00:56;;;;;;;12.47;5.08;;;;;;;22.20;100.00;98729.81;1647997;85;22057;-73
2021/06/22 00:03:27;;;;;;;10.88;4.25;;;;;;;22.21;100.00;98733.75;1649524;85;20907;-73
2021/06/22 00:05:58;;;;;;;18.52;5.10;;;;;;;22.24;100.00;98738.11;1675309;84;21013;-74
2021/06/22 00:08:28;;;;;;;13.10;4.60;;;;;;;22.26;100.00;98740.23;1698788;83;21617;-74
2021/06/22 00:10:59;;;;;;;11.88;5.33;;;;;;;22.23;100.00;98733.22;1704395;83;21019;-73
2021/06/22 00:13:34;;;;;;;10.23;4.90;;;;;;;22.21;100.00;98737.78;1702404;83;21191;-75
2021/06/22 00:16:05;;;;;;;12.55;5.53;;;;;;;22.22;100.00;98735.96;1657584;85;20857;-73
2021/06/22 00:18:37;;;;;;;10.23;4.78;;;;;;;22.22;100.00;98734.14;1633476;86;21433;-74
2021/06/22 00:21:06;;;;;;;16.32;5.33;;;;;;;22.24;100.00;98728.70;1704353;83;20911;-74
2021/06/22 00:23:37;;;;;;;13.00;4.53;;;;;;;22.27;100.00;98730.73;1703640;83;21404;-74
2021/06/22 00:26:07;;;;;;;11.33;4.72;;;;;;;22.28;100.00;98724.88;1696912;83;21174;-72
2021/06/22 00:28:36;;;;;;;13.15;5.30;;;;;;;22.28;100.00;98724.88;1666131;85;21378;-73
2021/06/22 00:31:08;;;;;;;10.98;4.58;;;;;;;22.29;100.00;98729.30;1699751;84;21467;-74
2021/06/22 00:33:40;;;;;;;13.93;5.08;;;;;;;22.29;100.00;98733.33;1667395;86;20917;-74
2021/06/22 00:36:11;;;;;;;13.32;4.92;;;;;;;22.28;100.00;98732.94;1697349;84;20949;-74
2021/06/22 00:38:42;;;;;;;11.93;4.78;;;;;;;22.26;100.00;98730.34;1681673;84;21153;-74
2021/06/22 00:41:13;;;;;;;9.75;4.67;;;;;;;22.24;100.00;98731.39;1650337;86;21448;-74
2021/06/22 00:43:43;;;;;;;10.48;5.22;;;;;;;22.23;100.00;98725.16;1673611;83;20968;-74
2021/06/22 00:46:14;;;;;;;13.58;5.15;;;;;;;22.24;100.00;98716.62;1661912;85;20999;-74
2021/06/22 00:48:45;;;;;;;9.70;4.87;;;;;;;22.23;100.00;98714.41;1636990;86;21065;-74
2021/06/22 00:51:15;;;;;;;12.15;5.25;;;;;;;22.20;100.00;98719.06;1602014;88;21834;-74
2021/06/22 00:53:45;;;;;;;15.35;4.58;;;;;;;22.18;100.00;98718.30;1682949;85;20909;-74
2021/06/22 00:56:14;;;;;;;12.37;5.47;;;;;;;22.18;100.00;98716.95;1686313;83;20925;-75
2021/06/22 00:58:47;;;;;;;10.82;4.42;;;;;;;22.18;100.00;98714.27;1653593;85;20880;-74
2021/06/22 01:01:17;;;;;;;11.43;4.67;;;;;;;22.18;100.00;98710.23;1684398;83;21515;-74
2021/06/22 01:03:49;;;;;;;11.90;5.23;;;;;;;22.17;100.00;98699.11;1713929;82;21986;-74
2021/06/22 01:06:20;;;;;;;10.50;5.10;;;;;;;22.16;100.00;98696.03;1713741;82;20937;-74
2021/06/22 01:08:52;;;;;;;10.58;4.45;;;;;;;22.13;100.00;98688.16;1713169;82;21396;-74
2021/06/22 01:11:23;;;;;;;18.55;5.37;;;;;;;22.11;100.00;98686.91;1713619;82;20866;-74
2021/06/22 01:13:53;;;;;;;9.80;5.40;;;;;;;22.11;100.00;98682.02;1713872;82;21042;-74
2021/06/22 01:16:29;;;;;;;14.23;5.37;;;;;;;22.09;100.00;98678.56;1713307;82;20973;-74
2021/06/22 01:19:04;;;;;;;14.58;5.05;;;;;;;22.08;100.00;98675.48;1662694;85;20987;-73
2021/06/22 01:21:49;;;;;;;9.15;5.70;;;;;;;22.07;100.00;98663.02;1625979;86;20945;-74
2021/06/22 01:24:25;;;;;;;12.80;5.70;;;;;;;22.06;100.00;98651.89;1661110;85;21018;-73
2021/06/22 01:27:00;;;;;;;17.60;6.28;;;;;;;22.03;100.00;98640.85;1695083;83;20865;-73
2021/06/22 01:29:30;;;;;;;20.02;6.05;;;;;;;21.97;100.00;98647.42;1665869;85;21916;-73
2021/06/22 01:32:02;;;;;;;12.40;5.80;;;;;;;21.91;100.00;98648.27;1710491;82;21391;-72
2021/06/22 01:34:33;;;;;;;15.68;5.80;;;;;;;21.87;100.00;98641.36;1663133;85;20847;-73
2021/06/22 01:37:07;;;;;;;12.63;5.37;;;;;;;21.84;100.00;98639.72;1699423;83;20936;-74
2021/06/22 01:39:37;;;;;;;16.77;5.90;;;;;;;21.84;100.00;98642.89;1694362;83;20960;-73
2021/06/22 01:42:10;;;;;;;14.95;6.47;;;;;;;21.85;100.00;98640.59;1663264;85;22004;-74
2021/06/22 01:44:46;;;;;;;12.65;5.65;;;;;;;21.84;100.00;98643.75;1624713;87;20981;-74
2021/06/22 01:47:15;;;;;;;14.38;5.37;;;;;;;21.83;100.00;98636.65;1619806;87;21484;-74
2021/06/22 01:49:45;;;;;;;14.30;5.62;;;;;;;21.84;100.00;98642.89;1620717;87;20972;-74
2021/06/22 01:52:17;;;;;;;17.65;5.60;;;;;;;21.82;100.00;98633.58;1670393;85;20913;-74
2021/06/22 01:54:48;;;;;;;15.05;5.20;;;;;;;21.82;100.00;98634.06;1669667;86;22073;-73
2021/06/22 01:57:18;;;;;;;13.65;5.65;;;;;;;21.78;100.00;98644.59;1669646;85;21392;-73
2021/06/22 01:59:50;;;;;;;15.20;5.40;;;;;;;21.74;100.00;98649.73;1668902;85;20914;-75
2021/06/22 02:02:21;;;;;;;20.30;5.35;;;;;;;21.73;100.00;98648.86;1669412;85;21392;-74
2021/06/22 02:05:10;;;;;;;14.87;5.15;;;;;;;21.73;100.00;98650.69;1669657;85;20922;-73
2021/06/22 02:07:39;;;;;;;16.55;5.03;;;;;;;21.72;100.00;98655.19;1650783;85;21118;-74
2021/06/22 02:10:15;;;;;;;17.42;6.10;;;;;;;21.73;100.00;98654.71;1669049;85;20993;-73
2021/06/22 02:12:51;;;;;;;12.00;5.33;;;;;;;21.72;100.00;98651.16;1667513;85;21427;-74
2021/06/22 02:15:24;;;;;;;14.78;5.80;;;;;;;21.71;100.00;98643.20;1669550;85;21394;-72
2021/06/22 02:17:53;;;;;;;12.65;5.20;;;;;;;21.72;100.00;98646.27;1671061;85;21068;-73
2021/06/22 02:20:24;;;;;;;14.50;5.20;;;;;;;21.73;100.00;98647.52;1671050;85;21179;-72
2021/06/22 02:22:59;;;;;;;10.25;4.90;;;;;;;21.75;100.00;98640.72;1671318;85;21448;-73
2021/06/22 02:25:30;;;;;;;16.35;5.90;;;;;;;21.75;100.00;98640.72;1668734;84;21424;-68
2021/06/22 02:28:14;;;;;;;14.85;4.87;;;;;;;21.73;100.00;98642.16;1695637;83;20954;-74
2021/06/22 02:30:47;;;;;;;10.82;4.97;;;;;;;21.73;100.00;98639.95;1670643;85;20997;-76
2021/06/22 02:33:16;;;;;;;16.30;4.92;;;;;;;21.73;100.00;98629.20;1670948;86;21132;-72
2021/06/22 02:35:47;;;;;;;17.55;4.80;;;;;;;21.73;100.00;98636.78;1669397;86;20937;-73
2021/06/22 02:38:17;;;;;;;14.05;5.42;;;;;;;21.74;100.00;98633.14;1668927;86;21592;-72
2021/06/22 02:40:48;;;;;;;13.25;4.92;;;;;;;21.74;100.00;98641.67;1671610;83;20906;-73
2021/06/22 02:43:19;;;;;;;11.22;4.78;;;;;;;21.72;100.00;98637.73;1669279;85;21115;-68
2021/06/22 02:45:51;;;;;;;19.00;5.05;;;;;;;21.73;100.00;98642.63;1679043;83;21899;-73
2021/06/22 02:48:23;;;;;;;18.12;5.00;;;;;;;21.75;100.00;98644.27;1689884;83;20893;-74
2021/06/22 02:50:53;;;;;;;17.67;4.83;;;;;;;21.76;100.00;98647.38;1654951;85;20944;-74
2021/06/22 02:53:26;;;;;;;9.93;4.92;;;;;;;21.78;100.00;98653.99;1689157;83;21452;-75
2021/06/22 02:55:56;;;;;;;12.07;4.30;;;;;;;21.79;100.00;98655.24;1645456;84;21006;-75
2021/06/22 02:58:28;;;;;;;13.18;4.53;;;;;;;21.82;100.00;98661.77;1675200;84;21255;-71
2021/06/22 03:00:56;;;;;;;10.95;4.00;;;;;;;21.86;100.00;98666.48;1674579;82;20882;-71
2021/06/22 03:03:27;;;;;;;13.08;4.80;;;;;;;21.89;100.00;98666.30;1660696;85;20951;-71
2021/06/22 03:05:58;;;;;;;11.25;4.60;;;;;;;21.90;100.00;98671.58;1693352;83;20937;-72
2021/06/22 03:08:29;;;;;;;13.38;4.90;;;;;;;21.92;100.00;98668.32;1649468;85;20911;-70
2021/06/22 03:10:58;;;;;;;10.80;4.53;;;;;;;21.95;100.00;98658.73;1657700;84;21138;-70
2021/06/22 03:13:28;;;;;;;16.17;4.65;;;;;;;21.98;100.00;98664.41;1673759;84;20865;-69
2021/06/22 03:15:56;;;;;;;17.40;4.75;;;;;;;21.98;100.00;98663.06;1654519;85;20880;-71
2021/06/22 03:18:24;;;;;;;12.55;4.75;;;;;;;21.99;100.00;98666.13;1674336;84;20916;-69
2021/06/22 03:20:54;;;;;;;11.57;4.50;;;;;;;21.99;100.00;98670.16;1675014;84;20996;-70
2021/06/22 03:23:24;;;;;;;12.68;5.10;;;;;;;22.00;100.00;98671.89;1674795;84;21129;-67
2021/06/22 03:25:55;;;;;;;15.03;5.12;;;;;;;22.00;100.00;98663.83;1673414;84;20900;-66
2021/06/22 03:28:23;;;;;;;12.75;5.00;;;;;;;22.06;100.00;98676.06;1672662;85;21000;-65
2021/06/22 03:31:02;;;;;;;9.35;4.15;;;;;;;22.08;100.00;98679.04;1671052;84;20892;-66
2021/06/22 03:33:32;;;;;;;10.98;4.97;;;;;;;22.12;100.00;98674.34;1672530;84;21431;-66
2021/06/22 03:36:00;;;;;;;15.32;5.25;;;;;;;22.15;100.00;98671.47;1689259;83;21143;-67
2021/06/22 03:38:29;;;;;;;12.82;5.58;;;;;;;22.18;100.00;98669.94;1658684;85;20993;-66
2021/06/22 03:40:59;;;;;;;11.65;5.80;;;;;;;22.21;100.00;98659.87;1691048;83;21431;-67
2021/06/22 03:43:28;;;;;;;13.00;6.47;;;;;;;22.27;100.00;98663.55;1677804;84;20926;-65
2021/06/22 03:45:59;;;;;;;12.25;5.50;;;;;;;22.33;100.00;98667.69;1699825;82;21047;-65
2021/06/22 03:48:28;;;;;;;11.22;5.03;;;;;;;22.38;100.00;98680.36;1641220;86;21282;-67
2021/06/22 03:50:57;;;;;;;9.10;4.37;;;;;;;22.42;100.00;98689.10;1705494;82;21529;-67
2021/06/22 03:53:26;;;;;;;12.82;4.87;;;;;;;22.47;100.00;98698.61;1689586;82;21090;-68
2021/06/22 03:55:55;;;;;;;14.20;5.17;;;;;;;22.54;100.00;98687.00;1716586;82;21589;-68
2021/06/22 03:58:28;;;;;;;15.25;4.70;;;;;;;22.60;100.00;98689.30;1720317;81;21819;-68
2021/06/22 04:00:58;;;;;;;12.80;4.28;;;;;;;22.65;100.00;98684.50;1666828;84;21466;-68
2021/06/22 04:03:28;;;;;;;16.90;5.03;;;;;;;22.67;100.00;98691.98;1662757;84;21454;-68
2021/06/22 04:06:15;;;;;;;13.55;4.87;;;;;;;22.70;100.00;98680.18;1654605;85;21517;-68
2021/06/22 04:08:45;;;;;;;10.58;5.12;;;;;;;22.68;100.00;98680.28;1709584;82;20956;-67
2021/06/22 04:11:16;;;;;;;10.80;4.65;;;;;;;22.68;100.00;98681.62;1719326;82;21052;-67
2021/06/22 04:13:46;;;;;;;8.88;4.50;;;;;;;22.70;100.00;98673.45;1691757;83;21529;-67
2021/06/22 04:16:16;;;;;;;11.12;4.87;;;;;;;22.73;100.00;98667.44;1703347;82;21550;-67
2021/06/22 04:18:46;;;;;;;22.07;5.20;;;;;;;22.74;100.00;98666.95;1710148;82;21018;-67
2021/06/22 04:21:18;;;;;;;17.17;5.47;;;;;;;22.70;100.00;98667.59;1697354;82;21452;-67
2021/06/22 04:23:47;;;;;;;12.40;4.65;;;;;;;22.70;100.00;98666.73;1668268;84;21524;-68
2021/06/22 04:26:16;;;;;;;12.68;4.95;;;;;;;22.72;100.00;98672.91;1718013;82;21085;-68
2021/06/22 04:28:46;;;;;;;12.23;4.72;;;;;;;22.75;100.00;98674.06;1691391;82;21488;-68
2021/06/22 04:31:15;;;;;;;13.58;5.30;;;;;;;22.76;100.00;98664.55;1719767;82;20917;-68
2021/06/22 04:33:44;;;;;;;13.43;5.72;;;;;;;22.77;100.00;98638.05;1718360;82;21502;-68
2021/06/22 04:36:13;;;;;;;10.85;4.65;;;;;;;22.79;100.00;98613.75;1710167;82;21561;-68
2021/06/22 04:38:43;;;;;;;15.20;5.78;;;;;;;22.84;100.00;98640.77;1668250;84;21924;-68
2021/06/22 04:41:17;;;;;;;9.13;4.65;;;;;;;22.85;100.00;98645.17;1641726;86;21526;-68
2021/06/22 04:43:46;;;;;;;14.25;5.00;;;;;;;22.85;100.00;98654.59;1689609;83;21048;-68
2021/06/22 04:46:15;;;;;;;11.12;5.25;;;;;;;22.88;100.00;98658.42;1641743;85;21517;-68
2021/06/22 04:48:44;;;;;;;13.00;6.33;;;;;;;22.91;100.00;98667.64;1716710;82;20982;-68
2021/06/22 04:51:18;;;;;;;12.05;5.40;;;;;;;22.96;100.00;98666.00;1671760;84;21237;-68
2021/06/22 04:53:43;;;;;;;12.82;5.35;;;;;;;23.03;100.00;98659.75;1713273;82;21037;-68
2021/06/22 04:56:11;;;;;;;12.25;5.12;;;;;;;23.08;100.00;98649.06;1718103;82;20944;-69
2021/06/22 04:58:39;;;;;;;14.70;6.28;;;;;;;23.14;100.00;98647.80;1717909;82;20860;-68
2021/06/22 05:01:08;;;;;;;17.10;5.28;;;;;;;23.19;100.00;98644.37;1716675;82;21023;-68
2021/06/22 05:03:37;;;;;;;14.50;5.97;;;;;;;23.23;100.00;98644.06;1718442;83;21131;-69
2021/06/22 05:06:06;;;;;;;14.43;6.10;;;;;;;23.27;100.00;98647.90;1718147;83;20943;-67
2021/06/22 05:08:34;;;;;;;14.23;5.37;;;;;;;23.30;100.00;98652.59;1714879;83;20900;-67
2021/06/22 05:11:02;;;;;;;12.65;5.40;;;;;;;23.35;100.00;98645.56;1707984;82;20885;-68
2021/06/22 05:13:30;;;;;;;11.38;5.67;;;;;;;23.32;100.00;98637.21;1669376;84;21571;-68
2021/06/22 05:15:58;;;;;;;16.02;6.25;;;;;;;23.38;100.00;98633.25;1701768;82;21970;-68
2021/06/22 05:18:26;;;;;;;11.75;5.70;;;;;;;23.42;100.00;98626.21;1671124;84;20987;-68
2021/06/22 05:20:55;;;;;;;15.40;6.55;;;;;;;23.47;100.00;98625.91;1716794;82;21526;-68
2021/06/22 05:23:23;;;;;;;17.55;5.80;;;;;;;23.52;100.00;98627.32;1712092;82;21495;-68
2021/06/22 05:25:51;;;;;;;21.87;6.62;;;;;;;23.57;100.00;98626.18;1717542;82;20957;-68
2021/06/22 05:28:20;;;;;;;9.00;5.17;;;;;;;23.62;100.00;98627.59;1711571;83;21240;-69
2021/06/22 05:30:48;;;;;;;18.95;5.90;;;;;;;23.71;100.00;98624.80;1641854;86;20919;-69
2021/06/22 05:33:18;;;;;;;19.92;5.60;;;;;;;23.81;100.00;98626.76;1695086;82;20949;-68
2021/06/22 05:35:47;;;;;;;17.37;6.17;;;;;;;23.89;100.00;98622.67;1666741;84;21007;-69
2021/06/22 05:38:15;;;;;;;17.07;6.08;;;;;;;23.96;100.00;98622.63;1645177;85;20993;-69
2021/06/22 05:40:43;;;;;;;22.67;5.90;;;;;;;23.96;100.00;98617.24;1719720;82;21146;-69
2021/06/22 05:43:11;;;;;;;18.05;6.20;;;;;;;23.99;100.00;98609.81;1714625;82;20899;-69
2021/06/22 05:45:39;;;;;;;20.68;6.15;;;;;;;24.00;100.00;98607.98;1680213;84;20909;-69
2021/06/22 05:48:09;;;;;;;18.32;5.90;;;;;;;24.03;100.00;98607.77;1658737;85;20975;-69
2021/06/22 05:50:37;;;;;;;24.85;6.83;;;;;;;24.06;100.00;98598.13;1692396;83;20905;-69
2021/06/22 05:53:06;;;;;;;24.90;6.37;;;;;;;24.09;100.00;98596.56;1657519;85;21139;-67
2021/06/22 05:55:35;;;;;;;25.68;6.10;;;;;;;24.13;100.00;98598.09;1690365;83;21583;-68
2021/06/22 05:58:04;;;;;;;22.05;6.58;;;;;;;24.19;100.00;98593.63;1658810;85;21026;-67
2021/06/22 06:00:33;;;;;;;27.25;6.12;;;;;;;24.26;100.00;98601.66;1692461;83;21656;-68
2021/06/22 06:03:04;;;;;;;28.15;6.90;;;;;;;24.38;100.00;98612.09;1658673;85;21666;-68
2021/06/22 06:05:32;;;;;;;39.78;8.00;;;;;;;24.54;100.00;98610.50;1693078;83;21158;-68
2021/06/22 06:08:00;;;;;;;34.55;8.13;;;;;;;24.71;100.00;98615.09;1658835;85;21461;-69
2021/06/22 06:10:29;;;;;;;36.53;7.03;;;;;;;24.87;100.00;98616.67;1692799;83;20942;-68
2021/06/22 06:12:57;;;;;;;35.73;6.65;;;;;;;25.02;100.00;98614.23;1658857;85;20942;-69
2021/06/22 06:15:26;;;;;;;38.50;7.75;;;;;;;25.17;100.00;98618.53;1692599;83;20909;-69
2021/06/22 06:17:54;;;;;;;42.25;8.00;;;;;;;25.31;100.00;98614.80;1689096;83;21159;-69
2021/06/22 06:20:25;;;;;;;39.78;9.05;;;;;;;25.43;100.00;98610.69;1688806;83;21518;-69
2021/06/22 06:22:52;;;;;;;41.28;9.20;;;;;;;25.56;100.00;98612.01;1686897;83;21097;-69
2021/06/22 06:25:20;;;;;;;56.35;8.45;;;;;;;25.68;100.00;98612.45;1687835;83;20946;-69
2021/06/22 06:30:19;;;;;;;59.05;9.58;;;;;;;25.91;100.00;98614.73;1688461;83;21183;-69
2021/06/22 06:32:46;;;;;;;50.73;8.58;;;;;;;26.05;100.00;98617.75;1655406;85;21463;-69
2021/06/22 06:35:15;;;;;;;49.83;9.95;;;;;;;26.14;100.00;98619.73;1688368;82;20947;-69
2021/06/22 06:37:45;;;;;;;58.92;9.58;;;;;;;26.25;100.00;98617.55;1691312;83;20956;-68
2021/06/22 06:40:13;;;;;;;55.63;9.28;;;;;;;26.37;100.00;98608.98;1659274;85;20899;-68
2021/06/22 06:42:41;;;;;;;52.33;9.93;;;;;;;26.48;100.00;98611.70;1688739;83;21144;-69
2021/06/22 06:45:10;;;;;;;68.10;10.08;;;;;;;26.62;100.00;98607.42;1683792;83;21087;-69
2021/06/22 06:47:38;;;;;;;77.03;12.05;;;;;;;26.77;100.00;98598.56;1656739;83;21103;-69
2021/06/22 06:50:08;;;;;;;61.68;11.55;;;;;;;26.91;100.00;98599.16;1660865;85;21129;-69
2021/06/22 06:52:37;;;;;;;64.45;10.85;;;;;;;27.07;100.00;98593.91;1667865;84;21709;-69
2021/06/22 06:58:00;;;;;;;66.77;10.72;;;;;;;27.34;100.00;98582.63;1694051;83;20956;-69
2021/06/22 07:00:31;;;;;;;69.80;10.58;;;;;;;27.45;100.00;98578.55;1694712;84;20892;-69
2021/06/22 07:02:58;;;;;;;63.40;11.28;;;;;;;27.56;100.00;98581.21;1689827;83;20999;-68
2021/06/22 07:05:27;;;;;;;62.20;10.80;;;;;;;27.69;100.00;98579.20;1692690;83;21490;-68
2021/06/22 07:07:57;;;;;;;84.10;10.75;;;;;;;27.82;100.00;98581.73;1694483;83;21515;-69
2021/06/22 07:10:27;;;;;;;59.98;10.20;;;;;;;27.90;100.00;98576.02;1697295;83;20997;-68
2021/06/22 07:13:00;;;;;;;57.08;9.95;;;;;;;27.99;100.00;98571.67;1697732;83;20984;-68
2021/06/22 07:15:29;;;;;;;74.25;10.78;;;;;;;28.09;100.00;98568.53;1688455;83;20946;-69
2021/06/22 07:17:57;;;;;;;53.05;9.20;;;;;;;28.19;100.00;98570.80;1654231;85;21423;-69
2021/06/22 07:20:25;;;;;;;69.53;10.50;;;;;;;28.29;100.00;98570.88;1652921;86;21158;-68
2021/06/22 07:22:53;;;;;;;60.40;10.18;;;;;;;28.38;100.00;98574.64;1654460;86;20948;-69
2021/06/22 07:25:25;;;;;;;62.03;11.12;;;;;;;28.44;100.00;98574.13;1652499;86;20968;-69
2021/06/22 07:27:51;;;;;;;63.68;10.63;;;;;;;28.55;100.00;98575.89;1655331;84;21396;-68
2021/06/22 07:30:27;;;;;;;62.38;8.78;;;;;;;28.65;100.00;98574.92;1650066;85;20947;-68
2021/06/22 07:32:52;;;;;;;59.38;9.78;;;;;;;28.74;100.00;98568.67;1637022;85;21225;-69
2021/06/22 07:35:20;;;;;;;399.05;27.70;;;;;;;28.83;100.00;98565.63;1701354;82;20933;-67
2021/06/22 07:37:48;;;;;;;73.70;10.25;;;;;;;28.91;100.00;98556.35;1667975;85;20872;-68
2021/06/22 07:40:18;;;;;;;58.80;9.70;;;;;;;29.00;100.00;98557.38;1702346;83;20910;-69
2021/06/22 07:42:45;;;;;;;60.67;10.45;;;;;;;29.08;100.00;98552.95;1702094;83;20937;-69
2021/06/22 07:45:15;;;;;;;56.15;8.40;;;;;;;29.18;100.00;98558.41;1701959;83;21233;-68
2021/06/22 07:47:43;;;;;;;55.33;9.28;;;;;;;29.24;100.00;98557.84;1701997;83;21505;-69
2021/06/22 07:50:12;;;;;;;54.18;8.78;;;;;;;29.30;100.00;98557.77;1702116;83;20866;-69
2021/06/22 07:52:40;;;;;;;63.20;9.55;;;;;;;29.34;100.00;98550.59;1702184;83;20918;-69
2021/06/22 07:55:14;;;;;;;46.20;8.45;;;;;;;29.36;100.00;98554.02;1702331;84;20866;-67
2021/06/22 07:57:38;;;;;;;41.63;7.80;;;;;;;29.40;100.00;98553.23;1701764;83;21465;-67
2021/06/22 08:00:12;;;;;;;49.23;6.92;;;;;;;29.46;100.00;98541.83;1701766;82;20945;-68
2021/06/22 08:02:38;;;;;;;57.95;8.68;;;;;;;29.54;100.00;98546.55;1697066;83;21005;-68
2021/06/22 08:05:07;;;;;;;51.77;7.78;;;;;;;29.60;100.00;98548.19;1700551;83;20976;-69
2021/06/22 08:07:35;;;;;;;48.05;8.28;;;;;;;29.63;100.00;98538.88;1700337;84;20941;-69
2021/06/22 08:10:07;;;;;;;53.58;7.72;;;;;;;29.69;100.00;98541.02;1674663;83;21172;-68
2021/06/22 08:12:35;;;;;;;59.60;7.90;;;;;;;29.74;100.00;98541.45;1672492;84;21562;-69
2021/06/22 08:15:06;;;;;;;48.05;9.50;;;;;;;29.80;100.00;98536.82;1657986;83;20989;-69
2021/06/22 08:17:34;;;;;;;46.95;7.70;;;;;;;29.87;100.00;98535.73;1686211;83;20960;-69
2021/06/22 08:20:05;;;;;;;48.45;6.05;;;;;;;29.91;100.00;98533.08;1691772;83;21051;-69
2021/06/22 08:22:34;;;;;;;40.67;6.05;;;;;;;29.92;100.00;98527.49;1697918;83;21734;-69
2021/06/22 08:25:05;;;;;;;43.23;6.08;;;;;;;29.93;100.00;98529.71;1685340;83;20991;-68
2021/06/22 08:27:35;;;;;;;42.15;5.90;;;;;;;29.94;100.00;98521.41;1675064;83;21462;-69
2021/06/22 08:30:07;;;;;;;45.88;7.08;;;;;;;29.94;100.00;98518.69;1699205;83;21534;-68
2021/06/22 08:32:35;;;;;;;33.23;6.40;;;;;;;29.96;100.00;98520.76;1699549;83;21332;-68
2021/06/22 08:35:05;;;;;;;44.18;6.67;;;;;;;29.96;100.00;98511.74;1691216;83;21803;-69
2021/06/22 08:37:33;;;;;;;45.90;5.97;;;;;;;29.99;100.00;98518.25;1691229;83;21022;-66
2021/06/22 08:40:01;;;;;;;31.57;5.53;;;;;;;30.02;100.00;98521.56;1691327;84;20943;-66
2021/06/22 08:42:29;;;;;;;33.70;5.37;;;;;;;30.06;100.00;98518.05;1691297;84;20946;-70
2021/06/22 08:44:57;;;;;;;31.85;5.55;;;;;;;30.12;100.00;98507.08;1685627;83;21447;-69
2021/06/22 08:47:26;;;;;;;41.75;6.53;;;;;;;30.21;100.00;98507.55;1689842;83;21125;-70
2021/06/22 08:49:54;;;;;;;28.12;5.85;;;;;;;30.30;100.00;98506.69;1687320;84;21387;-69
2021/06/22 08:52:30;;;;;;;35.75;5.80;;;;;;;30.40;100.00;98510.22;1686494;84;21451;-68
2021/06/22 08:54:57;;;;;;;45.92;5.22;;;;;;;30.52;100.00;98504.08;1678488;84;20917;-69
2021/06/22 08:57:25;;;;;;;39.98;4.67;;;;;;;30.58;100.00;98504.83;1667433;85;20937;-69
2021/06/22 08:59:54;;;;;;;31.12;4.03;;;;;;;30.58;100.00;98507.55;1697547;83;21226;-68
2021/06/22 09:02:25;;;;;;;28.30;4.75;;;;;;;30.58;100.00;98500.75;1660081;84;20945;-68
2021/06/22 09:04:54;;;;;;;27.65;4.53;;;;;;;30.60;100.00;98505.56;1608399;86;21513;-69
2021/06/22 09:07:56;;;;;;;27.70;4.28;;;;;;;30.61;100.00;98510.86;1652682;86;21035;-68
2021/06/22 09:10:35;;;;;;;37.98;4.60;;;;;;;30.59;100.00;98507.91;1652942;86;20940;-69
2021/06/22 09:13:26;;;;;;;36.68;4.67;;;;;;;30.62;100.00;98515.80;1653336;86;21141;-71
2021/06/22 09:15:57;;;;;;;39.75;5.25;;;;;;;30.68;100.00;98521.50;1644052;85;21407;-68
2021/06/22 09:18:34;;;;;;;25.90;4.62;;;;;;;30.74;100.00;98517.31;1627986;86;20950;-69
2021/06/22 09:21:08;;;;;;;33.98;5.05;;;;;;;30.78;100.00;98507.86;1627848;87;21584;-69
2021/06/22 09:23:38;;;;;;;50.15;6.42;;;;;;;30.82;100.00;98513.35;1627699;86;21517;-68
2021/06/22 09:26:26;;;;;;;36.95;5.12;;;;;;;30.82;100.00;98512.50;1627614;86;21122;-69
2021/06/22 09:29:10;;;;;;;44.65;5.08;;;;;;;30.78;100.00;98521.98;1647408;85;21019;-68
2021/06/22 09:31:50;;;;;;;33.55;4.70;;;;;;;30.78;100.00;98516.53;1654260;85;20951;-67
2021/06/22 09:34:19;;;;;;;28.73;5.47;;;;;;;30.81;100.00;98520.31;1629498;85;21410;-67
2021/06/22 09:36:55;;;;;;;34.05;5.15;;;;;;;30.88;100.00;98523.63;1631568;85;20978;-69
2021/06/22 09:39:24;;;;;;;30.57;5.55;;;;;;;30.97;100.00;98520.50;1627171;86;21196;-69
2021/06/22 09:41:53;;;;;;;40.98;5.97;;;;;;;31.00;100.00;98514.23;1627460;86;21072;-69
2021/06/22 09:44:30;;;;;;;37.75;6.37;;;;;;;31.00;100.00;98518.32;1637882;85;21168;-68
2021/06/22 09:47:00;;;;;;;36.60;5.65;;;;;;;31.03;100.00;98513.07;1647107;84;20994;-67
2021/06/22 09:49:34;;;;;;;32.55;6.30;;;;;;;31.08;100.00;98516.19;1636978;86;20923;-67
2021/06/22 09:52:08;;;;;;;40.95;6.05;;;;;;;31.11;100.00;98521.83;1644889;86;21168;-69
2021/06/22 09:54:51;;;;;;;68.60;10.32;;;;;;;31.16;100.00;98521.75;1644831;85;21497;-69
2021/06/22 09:57:23;;;;;;;43.75;6.90;;;;;;;31.22;100.00;98527.98;1642184;86;20994;-67
2021/06/22 10:00:05;;;;;;;38.63;6.05;;;;;;;31.30;100.00;98529.42;1641768;85;21422;-67
2021/06/22 10:02:52;;;;;;;29.48;5.15;;;;;;;31.41;100.00;98532.92;1654761;85;20979;-69
2021/06/22 10:05:21;;;;;;;56.02;7.87;;;;;;;31.58;100.00;98536.14;1646583;85;21149;-69
2021/06/22 10:07:53;;;;;;;79.22;11.15;;;;;;;31.69;100.00;98526.86;1697574;83;20894;-69
2021/06/22 10:10:21;;;;;;;68.42;9.15;;;;;;;31.75;100.00;98524.42;1674899;83;20951;-69
2021/06/22 10:12:50;;;;;;;75.40;10.23;;;;;;;31.80;100.00;98526.17;1683172;83;20952;-69
2021/06/22 10:15:18;;;;;;;86.63;13.20;;;;;;;31.84;100.00;98535.74;1684073;84;20955;-69
2021/06/22 10:17:47;;;;;;;35.68;6.37;;;;;;;31.90;100.00;98531.52;1684125;85;21122;-69
2021/06/22 10:20:16;;;;;;;46.18;5.80;;;;;;;31.95;100.00;98534.62;1683843;84;20987;-69
2021/06/22 10:22:47;;;;;;;33.25;5.37;;;;;;;32.03;100.00;98532.47;1684115;84;20967;-69
2021/06/22 10:25:34;;;;;;;34.33;5.37;;;;;;;32.06;100.00;98522.59;1695284;83;20981;-69
2021/06/22 10:28:05;;;;;;;41.80;5.67;;;;;;;32.10;100.00;98522.63;1573437;90;20968;-70
2021/06/22 10:30:34;;;;;;;37.73;5.00;;;;;;;32.18;100.00;98519.98;1556163;90;21171;-69
2021/06/22 10:33:03;;;;;;;34.55;4.62;;;;;;;32.26;100.00;98528.75;1552710;91;21003;-70
2021/06/22 10:35:31;;;;;;;36.25;5.03;;;;;;;32.35;100.00;98531.88;1604306;88;20937;-69
2021/06/22 10:38:07;;;;;;;41.75;4.92;;;;;;;32.44;100.00;98528.17;1602618;88;20974;-68
2021/06/22 10:40:35;;;;;;;29.95;5.08;;;;;;;32.53;100.00;98530.77;1613539;87;20906;-68
2021/06/22 10:43:07;;;;;;;26.70;4.67;;;;;;;32.65;100.00;98538.70;1617884;87;21151;-69
2021/06/22 10:45:57;;;;;;;31.23;4.60;;;;;;;32.69;100.00;98531.90;1616042;87;20971;-69
2021/06/22 10:48:25;;;;;;;29.60;4.67;;;;;;;32.70;100.00;98534.97;1622065;87;20970;-69
2021/06/22 10:50:54;;;;;;;67.00;5.25;;;;;;;32.71;99.97;98529.86;1619605;87;20970;-67
2021/06/22 10:53:42;;;;;;;144.62;12.33;;;;;;;32.75;100.00;98527.14;1631526;86;20939;-68
2021/06/22 10:56:17;;;;;;;36.20;4.65;;;;;;;32.76;98.24;98520.66;1615983;87;21180;-69
2021/06/22 10:59:14;;;;;;;29.42;5.00;;;;;;;32.80;97.21;98521.56;1615705;87;21492;-69
2021/06/22 11:01:56;;;;;;;53.60;5.83;;;;;;;32.84;98.65;98525.67;1612815;87;20891;-69
2021/06/22 11:04:24;;;;;;;27.42;4.67;;;;;;;32.89;99.00;98525.17;1616119;87;20974;-69
2021/06/22 11:07:09;;;;;;;37.60;4.45;;;;;;;32.89;99.36;98527.05;1615933;87;20918;-68
2021/06/22 11:09:37;;;;;;;31.30;5.22;;;;;;;32.92;100.00;98523.98;1616158;87;21104;-70
2021/06/22 11:12:25;;;;;;;30.10;5.10;;;;;;;32.99;100.00;98521.79;1616388;87;20979;-68
2021/06/22 11:15:08;;;;;;;22.65;4.37;;;;;;;33.10;100.00;98528.30;1616303;87;21362;-70
2021/06/22 11:17:54;;;;;;;26.82;4.47;;;;;;;33.21;100.00;98527.16;1616306;87;20990;-68
2021/06/22 11:20:22;;;;;;;31.73;4.78;;;;;;;33.35;100.00;98539.34;1616058;87;21471;-68
2021/06/22 11:23:08;;;;;;;27.52;4.75;;;;;;;33.43;100.00;98535.26;1589504;87;21181;-68
2021/06/22 11:26:03;;;;;;;25.27;4.15;;;;;;;33.48;97.05;98545.17;1617155;87;21509;-68
2021/06/22 11:28:59;;;;;;;63.52;6.50;;;;;;;33.43;92.21;98539.36;1612372;87;21576;-69
2021/06/22 11:31:45;;;;;;;26.02;4.55;;;;;;;33.33;90.81;98539.52;1610349;88;21489;-69
2021/06/22 11:34:29;;;;;;;31.45;5.25;;;;;;;33.18;90.12;98541.16;1608689;87;20883;-70
2021/06/22 11:36:59;;;;;;;25.45;5.08;;;;;;;33.11;93.57;98539.61;1595383;89;21195;-68
2021/06/22 11:39:38;;;;;;;30.10;4.10;;;;;;;32.93;95.56;98535.26;1606635;88;21512;-69
2021/06/22 11:42:15;;;;;;;26.15;4.30;;;;;;;32.86;99.80;98529.09;1606631;88;21495;-70